sensor_id;sensor_type;location;lat;lon;timestamp;P1;durP1;ratioP1;P2;durP2;ratioP2
4377;SDS011;2203;53.686;9.994;2023-11-18T00:00:06;12.20;;;5.00;;
4377;SDS011;2203;53.686;9.994;2023-11-18T00:02:37;7.10;;;3.83;;
4377;SDS011;2203;53.686;9.994;2023-11-18T00:05:03;14.90;;;5.37;;
4377;SDS011;2203;53.686;9.994;2023-11-18T00:07:29;8.00;;;4.40;;
4377;SDS011;2203;53.686;9.994;2023-11-18T00:09:54;6.00;;;4.20;;
4377;SDS011;2203;53.686;9.994;2023-11-18T00:12:20;6.70;;;4.30;;
4377;SDS011;2203;53.686;9.994;2023-11-18T00:14:45;6.13;;;4.20;;
4377;SDS011;2203;53.686;9.994;2023-11-18T00:17:11;7.27;;;4.33;;
4377;SDS011;2203;53.686;9.994;2023-11-18T00:19:37;7.03;;;4.47;;
4377;SDS011;2203;53.686;9.994;2023-11-18T00:22:03;7.50;;;4.10;;
4377;SDS011;2203;53.686;9.994;2023-11-18T00:24:28;8.30;;;4.50;;
4377;SDS011;2203;53.686;9.994;2023-11-18T00:26:53;7.33;;;4.40;;
4377;SDS011;2203;53.686;9.994;2023-11-18T00:29:20;6.07;;;4.00;;
4377;SDS011;2203;53.686;9.994;2023-11-18T00:31:45;9.80;;;4.63;;
4377;SDS011;2203;53.686;9.994;2023-11-18T00:34:11;8.10;;;4.70;;
4377;SDS011;2203;53.686;9.994;2023-11-18T00:36:36;6.87;;;4.37;;
4377;SDS011;2203;53.686;9.994;2023-11-18T00:39:02;8.10;;;5.00;;
4377;SDS011;2203;53.686;9.994;2023-11-18T00:41:29;10.37;;;5.00;;
4377;SDS011;2203;53.686;9.994;2023-11-18T00:43:54;7.30;;;4.93;;
4377;SDS011;2203;53.686;9.994;2023-11-18T00:46:21;9.53;;;4.73;;
4377;SDS011;2203;53.686;9.994;2023-11-18T00:48:47;6.03;;;4.50;;
4377;SDS011;2203;53.686;9.994;2023-11-18T00:51:12;10.97;;;4.70;;
4377;SDS011;2203;53.686;9.994;2023-11-18T00:53:38;5.10;;;3.77;;
4377;SDS011;2203;53.686;9.994;2023-11-18T00:56:04;7.00;;;4.50;;
4377;SDS011;2203;53.686;9.994;2023-11-18T00:58:33;5.80;;;3.90;;
4377;SDS011;2203;53.686;9.994;2023-11-18T01:01:01;6.70;;;4.23;;
4377;SDS011;2203;53.686;9.994;2023-11-18T01:03:27;5.30;;;3.73;;
4377;SDS011;2203;53.686;9.994;2023-11-18T01:05:53;7.97;;;3.93;;
4377;SDS011;2203;53.686;9.994;2023-11-18T01:08:18;5.27;;;3.80;;
4377;SDS011;2203;53.686;9.994;2023-11-18T01:10:43;7.63;;;4.13;;
4377;SDS011;2203;53.686;9.994;2023-11-18T01:13:09;9.70;;;4.50;;
4377;SDS011;2203;53.686;9.994;2023-11-18T01:15:34;6.50;;;4.50;;
4377;SDS011;2203;53.686;9.994;2023-11-18T01:18:00;6.03;;;3.97;;
4377;SDS011;2203;53.686;9.994;2023-11-18T01:20:25;9.20;;;4.40;;
4377;SDS011;2203;53.686;9.994;2023-11-18T01:22:51;8.27;;;3.67;;
4377;SDS011;2203;53.686;9.994;2023-11-18T01:25:16;8.40;;;4.40;;
4377;SDS011;2203;53.686;9.994;2023-11-18T01:27:42;12.03;;;4.50;;
4377;SDS011;2203;53.686;9.994;2023-11-18T01:30:11;5.90;;;4.20;;
4377;SDS011;2203;53.686;9.994;2023-11-18T01:32:38;9.60;;;4.90;;
4377;SDS011;2203;53.686;9.994;2023-11-18T01:35:05;7.27;;;4.47;;
4377;SDS011;2203;53.686;9.994;2023-11-18T01:37:30;5.50;;;4.10;;
4377;SDS011;2203;53.686;9.994;2023-11-18T01:39:57;14.70;;;4.83;;
4377;SDS011;2203;53.686;9.994;2023-11-18T01:42:22;7.43;;;4.53;;
4377;SDS011;2203;53.686;9.994;2023-11-18T01:44:48;8.23;;;4.10;;
4377;SDS011;2203;53.686;9.994;2023-11-18T01:47:13;5.70;;;3.93;;
4377;SDS011;2203;53.686;9.994;2023-11-18T01:49:39;8.27;;;5.50;;
4377;SDS011;2203;53.686;9.994;2023-11-18T01:52:09;11.00;;;5.17;;
4377;SDS011;2203;53.686;9.994;2023-11-18T01:54:38;10.57;;;4.97;;
4377;SDS011;2203;53.686;9.994;2023-11-18T01:57:04;8.60;;;4.80;;
4377;SDS011;2203;53.686;9.994;2023-11-18T01:59:31;7.90;;;5.10;;
4377;SDS011;2203;53.686;9.994;2023-11-18T02:02:00;10.57;;;5.07;;
4377;SDS011;2203;53.686;9.994;2023-11-18T02:04:26;8.17;;;4.87;;
4377;SDS011;2203;53.686;9.994;2023-11-18T02:06:53;6.93;;;3.70;;
4377;SDS011;2203;53.686;9.994;2023-11-18T02:09:19;8.43;;;5.07;;
4377;SDS011;2203;53.686;9.994;2023-11-18T02:12:08;9.83;;;5.60;;
4377;SDS011;2203;53.686;9.994;2023-11-18T02:14:51;9.47;;;5.00;;
4377;SDS011;2203;53.686;9.994;2023-11-18T02:17:20;10.00;;;5.10;;
4377;SDS011;2203;53.686;9.994;2023-11-18T02:19:49;5.63;;;4.23;;
4377;SDS011;2203;53.686;9.994;2023-11-18T02:22:15;8.70;;;5.17;;
4377;SDS011;2203;53.686;9.994;2023-11-18T02:24:41;7.77;;;5.40;;
4377;SDS011;2203;53.686;9.994;2023-11-18T02:27:07;8.83;;;5.60;;
4377;SDS011;2203;53.686;9.994;2023-11-18T02:29:34;8.20;;;5.80;;
4377;SDS011;2203;53.686;9.994;2023-11-18T02:32:15;10.27;;;5.73;;
4377;SDS011;2203;53.686;9.994;2023-11-18T02:35:32;10.40;;;7.03;;
4377;SDS011;2203;53.686;9.994;2023-11-18T02:37:49;9.57;;;6.03;;
4377;SDS011;2203;53.686;9.994;2023-11-18T02:40:18;10.30;;;6.63;;
4377;SDS011;2203;53.686;9.994;2023-11-18T02:42:44;10.80;;;6.90;;
4377;SDS011;2203;53.686;9.994;2023-11-18T02:45:11;11.60;;;6.60;;
4377;SDS011;2203;53.686;9.994;2023-11-18T02:47:41;9.60;;;6.73;;
4377;SDS011;2203;53.686;9.994;2023-11-18T02:50:09;15.00;;;7.60;;
4377;SDS011;2203;53.686;9.994;2023-11-18T02:52:39;10.40;;;6.60;;
4377;SDS011;2203;53.686;9.994;2023-11-18T02:55:05;19.47;;;7.30;;
4377;SDS011;2203;53.686;9.994;2023-11-18T02:57:38;15.00;;;7.87;;
4377;SDS011;2203;53.686;9.994;2023-11-18T03:00:07;12.77;;;6.67;;
4377;SDS011;2203;53.686;9.994;2023-11-18T03:02:48;9.77;;;6.07;;
4377;SDS011;2203;53.686;9.994;2023-11-18T03:05:15;9.90;;;6.23;;
4377;SDS011;2203;53.686;9.994;2023-11-18T03:07:40;12.70;;;7.40;;
4377;SDS011;2203;53.686;9.994;2023-11-18T03:10:06;18.73;;;7.77;;
4377;SDS011;2203;53.686;9.994;2023-11-18T03:12:36;13.83;;;7.00;;
4377;SDS011;2203;53.686;9.994;2023-11-18T03:15:03;11.57;;;7.33;;
4377;SDS011;2203;53.686;9.994;2023-11-18T03:17:30;17.37;;;6.47;;
4377;SDS011;2203;53.686;9.994;2023-11-18T03:19:56;12.33;;;6.87;;
4377;SDS011;2203;53.686;9.994;2023-11-18T03:22:22;10.00;;;6.50;;
4377;SDS011;2203;53.686;9.994;2023-11-18T03:24:48;9.83;;;6.73;;
4377;SDS011;2203;53.686;9.994;2023-11-18T03:27:14;10.30;;;6.50;;
4377;SDS011;2203;53.686;9.994;2023-11-18T03:29:40;14.40;;;6.80;;
4377;SDS011;2203;53.686;9.994;2023-11-18T03:32:05;11.40;;;6.43;;
4377;SDS011;2203;53.686;9.994;2023-11-18T03:34:31;9.20;;;6.00;;
4377;SDS011;2203;53.686;9.994;2023-11-18T03:36:57;8.67;;;6.20;;
4377;SDS011;2203;53.686;9.994;2023-11-18T03:39:22;9.53;;;5.43;;
4377;SDS011;2203;53.686;9.994;2023-11-18T03:41:48;9.27;;;5.50;;
4377;SDS011;2203;53.686;9.994;2023-11-18T03:44:14;13.90;;;7.00;;
4377;SDS011;2203;53.686;9.994;2023-11-18T03:46:40;15.73;;;6.10;;
4377;SDS011;2203;53.686;9.994;2023-11-18T03:49:06;13.23;;;6.10;;
4377;SDS011;2203;53.686;9.994;2023-11-18T03:51:31;10.47;;;6.20;;
4377;SDS011;2203;53.686;9.994;2023-11-18T03:53:57;14.93;;;6.87;;
4377;SDS011;2203;53.686;9.994;2023-11-18T03:56:22;12.90;;;6.37;;
4377;SDS011;2203;53.686;9.994;2023-11-18T03:58:48;15.50;;;6.83;;
4377;SDS011;2203;53.686;9.994;2023-11-18T04:01:20;20.57;;;7.27;;
4377;SDS011;2203;53.686;9.994;2023-11-18T04:03:45;9.83;;;6.30;;
4377;SDS011;2203;53.686;9.994;2023-11-18T04:06:11;12.00;;;6.30;;
4377;SDS011;2203;53.686;9.994;2023-11-18T04:08:36;11.53;;;6.20;;
4377;SDS011;2203;53.686;9.994;2023-11-18T04:11:02;11.03;;;6.77;;
4377;SDS011;2203;53.686;9.994;2023-11-18T04:13:29;11.73;;;5.87;;
4377;SDS011;2203;53.686;9.994;2023-11-18T04:15:55;10.73;;;6.90;;
4377;SDS011;2203;53.686;9.994;2023-11-18T04:18:20;9.70;;;6.20;;
4377;SDS011;2203;53.686;9.994;2023-11-18T04:20:46;10.63;;;6.63;;
4377;SDS011;2203;53.686;9.994;2023-11-18T04:23:11;12.20;;;6.50;;
4377;SDS011;2203;53.686;9.994;2023-11-18T04:25:38;12.90;;;6.30;;
4377;SDS011;2203;53.686;9.994;2023-11-18T04:28:03;10.03;;;6.40;;
4377;SDS011;2203;53.686;9.994;2023-11-18T04:30:29;12.53;;;7.53;;
4377;SDS011;2203;53.686;9.994;2023-11-18T04:32:54;13.87;;;6.00;;
4377;SDS011;2203;53.686;9.994;2023-11-18T04:35:20;14.10;;;7.40;;
4377;SDS011;2203;53.686;9.994;2023-11-18T04:37:47;9.50;;;6.30;;
4377;SDS011;2203;53.686;9.994;2023-11-18T04:40:13;10.40;;;6.83;;
4377;SDS011;2203;53.686;9.994;2023-11-18T04:42:39;13.60;;;7.07;;
4377;SDS011;2203;53.686;9.994;2023-11-18T04:45:04;10.77;;;6.50;;
4377;SDS011;2203;53.686;9.994;2023-11-18T04:47:30;11.10;;;6.60;;
4377;SDS011;2203;53.686;9.994;2023-11-18T04:49:56;9.47;;;6.17;;
4377;SDS011;2203;53.686;9.994;2023-11-18T04:52:21;12.20;;;7.60;;
4377;SDS011;2203;53.686;9.994;2023-11-18T04:54:47;9.67;;;6.47;;
4377;SDS011;2203;53.686;9.994;2023-11-18T04:57:13;17.10;;;6.57;;
4377;SDS011;2203;53.686;9.994;2023-11-18T04:59:39;11.93;;;6.63;;
4377;SDS011;2203;53.686;9.994;2023-11-18T05:02:04;10.70;;;7.00;;
4377;SDS011;2203;53.686;9.994;2023-11-18T05:04:29;10.60;;;5.90;;
4377;SDS011;2203;53.686;9.994;2023-11-18T05:06:55;13.03;;;7.03;;
4377;SDS011;2203;53.686;9.994;2023-11-18T05:09:21;14.13;;;7.03;;
4377;SDS011;2203;53.686;9.994;2023-11-18T05:11:46;9.77;;;6.60;;
4377;SDS011;2203;53.686;9.994;2023-11-18T05:14:13;12.90;;;7.33;;
4377;SDS011;2203;53.686;9.994;2023-11-18T05:16:41;10.70;;;6.70;;
4377;SDS011;2203;53.686;9.994;2023-11-18T05:19:08;10.30;;;7.10;;
4377;SDS011;2203;53.686;9.994;2023-11-18T05:21:33;13.07;;;7.30;;
4377;SDS011;2203;53.686;9.994;2023-11-18T05:23:59;15.00;;;7.53;;
4377;SDS011;2203;53.686;9.994;2023-11-18T05:26:25;11.37;;;6.97;;
4377;SDS011;2203;53.686;9.994;2023-11-18T05:28:52;12.87;;;7.50;;
4377;SDS011;2203;53.686;9.994;2023-11-18T05:31:17;15.50;;;7.50;;
4377;SDS011;2203;53.686;9.994;2023-11-18T05:33:43;12.53;;;6.73;;
4377;SDS011;2203;53.686;9.994;2023-11-18T05:36:09;12.80;;;6.77;;
4377;SDS011;2203;53.686;9.994;2023-11-18T05:38:36;12.07;;;7.10;;
4377;SDS011;2203;53.686;9.994;2023-11-18T05:41:02;10.93;;;6.87;;
4377;SDS011;2203;53.686;9.994;2023-11-18T05:43:29;11.33;;;6.57;;
4377;SDS011;2203;53.686;9.994;2023-11-18T05:46:01;12.47;;;6.77;;
4377;SDS011;2203;53.686;9.994;2023-11-18T05:48:47;12.90;;;7.83;;
4377;SDS011;2203;53.686;9.994;2023-11-18T05:51:13;11.80;;;7.27;;
4377;SDS011;2203;53.686;9.994;2023-11-18T05:53:43;14.67;;;7.13;;
4377;SDS011;2203;53.686;9.994;2023-11-18T05:56:12;12.67;;;6.90;;
4377;SDS011;2203;53.686;9.994;2023-11-18T05:58:38;14.93;;;7.17;;
4377;SDS011;2203;53.686;9.994;2023-11-18T06:01:08;14.23;;;7.23;;
4377;SDS011;2203;53.686;9.994;2023-11-18T06:03:34;11.43;;;7.07;;
4377;SDS011;2203;53.686;9.994;2023-11-18T06:06:05;16.23;;;8.30;;
4377;SDS011;2203;53.686;9.994;2023-11-18T06:08:35;12.50;;;7.23;;
4377;SDS011;2203;53.686;9.994;2023-11-18T06:11:00;13.30;;;7.03;;
4377;SDS011;2203;53.686;9.994;2023-11-18T06:13:37;13.33;;;7.33;;
4377;SDS011;2203;53.686;9.994;2023-11-18T06:18:41;14.13;;;7.60;;
4377;SDS011;2203;53.686;9.994;2023-11-18T06:21:16;11.40;;;7.07;;
4377;SDS011;2203;53.686;9.994;2023-11-18T06:23:46;17.63;;;8.07;;
4377;SDS011;2203;53.686;9.994;2023-11-18T06:26:12;18.70;;;7.83;;
4377;SDS011;2203;53.686;9.994;2023-11-18T06:28:38;18.30;;;9.00;;
4377;SDS011;2203;53.686;9.994;2023-11-18T06:31:05;12.83;;;7.80;;
4377;SDS011;2203;53.686;9.994;2023-11-18T06:33:36;14.23;;;8.27;;
4377;SDS011;2203;53.686;9.994;2023-11-18T06:36:02;16.30;;;7.70;;
4377;SDS011;2203;53.686;9.994;2023-11-18T06:38:29;12.37;;;7.67;;
4377;SDS011;2203;53.686;9.994;2023-11-18T06:40:55;15.90;;;8.93;;
4377;SDS011;2203;53.686;9.994;2023-11-18T06:43:23;11.87;;;7.70;;
4377;SDS011;2203;53.686;9.994;2023-11-18T06:45:49;21.23;;;8.63;;
4377;SDS011;2203;53.686;9.994;2023-11-18T06:48:15;19.03;;;8.20;;
4377;SDS011;2203;53.686;9.994;2023-11-18T06:50:45;16.10;;;7.57;;
4377;SDS011;2203;53.686;9.994;2023-11-18T06:53:10;15.37;;;7.53;;
4377;SDS011;2203;53.686;9.994;2023-11-18T06:55:36;14.23;;;8.77;;
4377;SDS011;2203;53.686;9.994;2023-11-18T06:58:02;14.47;;;8.00;;
4377;SDS011;2203;53.686;9.994;2023-11-18T07:00:27;15.50;;;8.80;;
4377;SDS011;2203;53.686;9.994;2023-11-18T07:02:54;15.43;;;7.93;;
4377;SDS011;2203;53.686;9.994;2023-11-18T07:05:19;22.63;;;9.00;;
4377;SDS011;2203;53.686;9.994;2023-11-18T07:07:49;13.03;;;7.60;;
4377;SDS011;2203;53.686;9.994;2023-11-18T07:10:17;16.00;;;8.50;;
4377;SDS011;2203;53.686;9.994;2023-11-18T07:12:46;18.90;;;8.27;;
4377;SDS011;2203;53.686;9.994;2023-11-18T07:15:13;15.03;;;7.60;;
4377;SDS011;2203;53.686;9.994;2023-11-18T07:17:39;18.60;;;9.13;;
4377;SDS011;2203;53.686;9.994;2023-11-18T07:20:04;20.67;;;9.33;;
4377;SDS011;2203;53.686;9.994;2023-11-18T07:22:31;20.27;;;10.33;;
4377;SDS011;2203;53.686;9.994;2023-11-18T07:24:56;17.93;;;9.70;;
4377;SDS011;2203;53.686;9.994;2023-11-18T07:27:22;18.10;;;9.53;;
4377;SDS011;2203;53.686;9.994;2023-11-18T07:29:47;16.57;;;8.60;;
4377;SDS011;2203;53.686;9.994;2023-11-18T07:32:13;15.43;;;8.80;;
4377;SDS011;2203;53.686;9.994;2023-11-18T07:34:39;13.77;;;8.20;;
4377;SDS011;2203;53.686;9.994;2023-11-18T07:37:06;16.07;;;9.10;;
4377;SDS011;2203;53.686;9.994;2023-11-18T07:39:33;18.00;;;10.00;;
4377;SDS011;2203;53.686;9.994;2023-11-18T07:42:13;17.60;;;8.77;;
4377;SDS011;2203;53.686;9.994;2023-11-18T07:44:39;16.47;;;8.50;;
4377;SDS011;2203;53.686;9.994;2023-11-18T07:47:05;19.43;;;8.13;;
4377;SDS011;2203;53.686;9.994;2023-11-18T07:49:34;15.33;;;8.60;;
4377;SDS011;2203;53.686;9.994;2023-11-18T07:52:01;15.37;;;8.20;;
4377;SDS011;2203;53.686;9.994;2023-11-18T07:54:27;18.07;;;9.57;;
4377;SDS011;2203;53.686;9.994;2023-11-18T07:56:52;14.87;;;8.60;;
4377;SDS011;2203;53.686;9.994;2023-11-18T07:59:19;13.50;;;7.67;;
4377;SDS011;2203;53.686;9.994;2023-11-18T08:01:45;19.43;;;9.60;;
4377;SDS011;2203;53.686;9.994;2023-11-18T08:04:11;16.23;;;9.30;;
4377;SDS011;2203;53.686;9.994;2023-11-18T08:06:40;17.37;;;8.83;;
4377;SDS011;2203;53.686;9.994;2023-11-18T08:09:06;22.07;;;10.23;;
4377;SDS011;2203;53.686;9.994;2023-11-18T08:11:37;16.43;;;8.63;;
4377;SDS011;2203;53.686;9.994;2023-11-18T08:14:04;20.40;;;10.53;;
4377;SDS011;2203;53.686;9.994;2023-11-18T08:16:29;14.00;;;8.23;;
4377;SDS011;2203;53.686;9.994;2023-11-18T08:18:55;17.17;;;9.60;;
4377;SDS011;2203;53.686;9.994;2023-11-18T08:21:20;19.10;;;10.00;;
4377;SDS011;2203;53.686;9.994;2023-11-18T08:23:47;20.53;;;9.07;;
4377;SDS011;2203;53.686;9.994;2023-11-18T08:26:13;19.70;;;9.63;;
4377;SDS011;2203;53.686;9.994;2023-11-18T08:28:39;20.93;;;10.17;;
4377;SDS011;2203;53.686;9.994;2023-11-18T08:31:05;17.10;;;9.67;;
4377;SDS011;2203;53.686;9.994;2023-11-18T08:33:31;19.00;;;9.93;;
4377;SDS011;2203;53.686;9.994;2023-11-18T08:35:59;18.43;;;9.87;;
4377;SDS011;2203;53.686;9.994;2023-11-18T08:38:26;24.80;;;9.47;;
4377;SDS011;2203;53.686;9.994;2023-11-18T08:40:53;23.60;;;9.63;;
4377;SDS011;2203;53.686;9.994;2023-11-18T08:43:18;17.63;;;9.53;;
4377;SDS011;2203;53.686;9.994;2023-11-18T08:45:45;21.63;;;10.13;;
4377;SDS011;2203;53.686;9.994;2023-11-18T08:48:11;19.53;;;10.57;;
4377;SDS011;2203;53.686;9.994;2023-11-18T08:50:36;16.90;;;9.87;;
4377;SDS011;2203;53.686;9.994;2023-11-18T08:53:04;19.23;;;10.70;;
4377;SDS011;2203;53.686;9.994;2023-11-18T08:55:31;17.90;;;9.73;;
4377;SDS011;2203;53.686;9.994;2023-11-18T08:58:07;19.23;;;10.07;;
4377;SDS011;2203;53.686;9.994;2023-11-18T09:00:47;21.60;;;11.40;;
4377;SDS011;2203;53.686;9.994;2023-11-18T09:03:20;16.57;;;8.90;;
4377;SDS011;2203;53.686;9.994;2023-11-18T09:08:28;16.00;;;7.70;;
4377;SDS011;2203;53.686;9.994;2023-11-18T09:10:57;19.03;;;8.80;;
4377;SDS011;2203;53.686;9.994;2023-11-18T09:13:23;19.97;;;9.33;;
4377;SDS011;2203;53.686;9.994;2023-11-18T09:16:00;15.43;;;8.10;;
4377;SDS011;2203;53.686;9.994;2023-11-18T09:18:33;17.40;;;8.27;;
4377;SDS011;2203;53.686;9.994;2023-11-18T09:21:00;14.40;;;8.40;;
4377;SDS011;2203;53.686;9.994;2023-11-18T09:23:26;12.17;;;7.17;;
4377;SDS011;2203;53.686;9.994;2023-11-18T09:25:52;14.40;;;7.37;;
4377;SDS011;2203;53.686;9.994;2023-11-18T09:28:19;10.70;;;5.97;;
4377;SDS011;2203;53.686;9.994;2023-11-18T09:30:45;9.70;;;6.57;;
4377;SDS011;2203;53.686;9.994;2023-11-18T09:33:17;11.93;;;6.60;;
4377;SDS011;2203;53.686;9.994;2023-11-18T09:35:53;10.63;;;5.67;;
4377;SDS011;2203;53.686;9.994;2023-11-18T09:38:23;8.87;;;4.97;;
4377;SDS011;2203;53.686;9.994;2023-11-18T09:40:58;7.67;;;4.80;;
4377;SDS011;2203;53.686;9.994;2023-11-18T09:43:36;8.97;;;4.70;;
4377;SDS011;2203;53.686;9.994;2023-11-18T09:46:25;7.57;;;4.70;;
4377;SDS011;2203;53.686;9.994;2023-11-18T09:51:50;5.80;;;4.27;;
4377;SDS011;2203;53.686;9.994;2023-11-18T09:57:31;6.10;;;3.90;;
4377;SDS011;2203;53.686;9.994;2023-11-18T10:00:03;6.20;;;3.67;;
4377;SDS011;2203;53.686;9.994;2023-11-18T10:02:44;5.50;;;3.20;;
4377;SDS011;2203;53.686;9.994;2023-11-18T10:05:11;5.90;;;3.20;;
4377;SDS011;2203;53.686;9.994;2023-11-18T10:07:41;5.37;;;2.93;;
4377;SDS011;2203;53.686;9.994;2023-11-18T10:10:07;3.60;;;2.43;;
4377;SDS011;2203;53.686;9.994;2023-11-18T10:12:49;3.17;;;2.47;;
4377;SDS011;2203;53.686;9.994;2023-11-18T10:15:23;3.90;;;2.53;;
4377;SDS011;2203;53.686;9.994;2023-11-18T10:17:49;3.67;;;2.90;;
4377;SDS011;2203;53.686;9.994;2023-11-18T10:23:08;3.90;;;2.70;;
4377;SDS011;2203;53.686;9.994;2023-11-18T10:25:35;4.20;;;2.83;;
4377;SDS011;2203;53.686;9.994;2023-11-18T10:28:30;2.73;;;2.33;;
4377;SDS011;2203;53.686;9.994;2023-11-18T10:31:00;7.70;;;3.30;;
4377;SDS011;2203;53.686;9.994;2023-11-18T10:33:33;2.77;;;2.20;;
4377;SDS011;2203;53.686;9.994;2023-11-18T10:36:01;3.80;;;2.40;;
4377;SDS011;2203;53.686;9.994;2023-11-18T10:38:30;3.77;;;2.10;;
4377;SDS011;2203;53.686;9.994;2023-11-18T10:40:57;4.63;;;3.00;;
4377;SDS011;2203;53.686;9.994;2023-11-18T10:43:26;2.37;;;2.10;;
4377;SDS011;2203;53.686;9.994;2023-11-18T10:46:16;4.53;;;3.00;;
4377;SDS011;2203;53.686;9.994;2023-11-18T10:48:40;3.80;;;2.60;;
4377;SDS011;2203;53.686;9.994;2023-11-18T10:51:12;3.90;;;2.57;;
4377;SDS011;2203;53.686;9.994;2023-11-18T10:53:42;5.40;;;2.93;;
4377;SDS011;2203;53.686;9.994;2023-11-18T10:56:18;4.03;;;2.67;;
4377;SDS011;2203;53.686;9.994;2023-11-18T10:58:49;3.90;;;2.90;;
4377;SDS011;2203;53.686;9.994;2023-11-18T11:01:15;4.90;;;3.00;;
4377;SDS011;2203;53.686;9.994;2023-11-18T11:03:53;6.20;;;3.23;;
4377;SDS011;2203;53.686;9.994;2023-11-18T11:06:20;4.83;;;3.00;;
4377;SDS011;2203;53.686;9.994;2023-11-18T11:08:48;8.57;;;3.30;;
4377;SDS011;2203;53.686;9.994;2023-11-18T11:11:15;9.97;;;2.60;;
4377;SDS011;2203;53.686;9.994;2023-11-18T11:13:44;3.63;;;2.77;;
4377;SDS011;2203;53.686;9.994;2023-11-18T11:16:12;3.50;;;2.57;;
4377;SDS011;2203;53.686;9.994;2023-11-18T11:18:37;2.50;;;2.13;;
4377;SDS011;2203;53.686;9.994;2023-11-18T11:21:14;4.07;;;2.80;;
4377;SDS011;2203;53.686;9.994;2023-11-18T11:23:53;3.90;;;2.07;;
4377;SDS011;2203;53.686;9.994;2023-11-18T11:29:24;2.40;;;2.13;;
4377;SDS011;2203;53.686;9.994;2023-11-18T11:31:58;4.50;;;2.87;;
4377;SDS011;2203;53.686;9.994;2023-11-18T11:34:28;4.87;;;2.47;;
4377;SDS011;2203;53.686;9.994;2023-11-18T11:36:56;2.63;;;2.40;;
4377;SDS011;2203;53.686;9.994;2023-11-18T11:39:24;4.77;;;2.53;;
4377;SDS011;2203;53.686;9.994;2023-11-18T11:41:55;3.67;;;2.50;;
4377;SDS011;2203;53.686;9.994;2023-11-18T11:44:21;2.83;;;2.43;;
4377;SDS011;2203;53.686;9.994;2023-11-18T11:46:54;2.80;;;2.17;;
4377;SDS011;2203;53.686;9.994;2023-11-18T11:49:21;4.07;;;2.40;;
4377;SDS011;2203;53.686;9.994;2023-11-18T11:51:55;2.33;;;2.13;;
4377;SDS011;2203;53.686;9.994;2023-11-18T11:54:27;2.10;;;1.87;;
4377;SDS011;2203;53.686;9.994;2023-11-18T11:56:56;3.90;;;2.83;;
4377;SDS011;2203;53.686;9.994;2023-11-18T12:02:08;3.83;;;1.80;;
4377;SDS011;2203;53.686;9.994;2023-11-18T12:04:35;2.60;;;2.40;;
4377;SDS011;2203;53.686;9.994;2023-11-18T12:07:03;4.30;;;2.67;;
4377;SDS011;2203;53.686;9.994;2023-11-18T12:09:29;3.20;;;2.50;;
4377;SDS011;2203;53.686;9.994;2023-11-18T12:11:58;2.60;;;2.17;;
4377;SDS011;2203;53.686;9.994;2023-11-18T12:14:24;6.90;;;3.00;;
4377;SDS011;2203;53.686;9.994;2023-11-18T12:19:38;2.97;;;2.33;;
4377;SDS011;2203;53.686;9.994;2023-11-18T12:22:18;4.20;;;2.67;;
4377;SDS011;2203;53.686;9.994;2023-11-18T12:33:00;3.73;;;2.80;;
4377;SDS011;2203;53.686;9.994;2023-11-18T12:46:49;6.47;;;3.40;;
4377;SDS011;2203;53.686;9.994;2023-11-18T12:49:19;4.50;;;3.30;;
4377;SDS011;2203;53.686;9.994;2023-11-18T12:51:54;10.27;;;3.80;;
4377;SDS011;2203;53.686;9.994;2023-11-18T12:54:20;6.10;;;3.40;;
4377;SDS011;2203;53.686;9.994;2023-11-18T12:56:55;6.10;;;3.87;;
4377;SDS011;2203;53.686;9.994;2023-11-18T12:59:21;18.93;;;4.40;;
4377;SDS011;2203;53.686;9.994;2023-11-18T13:01:47;7.63;;;3.90;;
4377;SDS011;2203;53.686;9.994;2023-11-18T13:04:22;5.30;;;3.63;;
4377;SDS011;2203;53.686;9.994;2023-11-18T13:06:49;6.53;;;4.13;;
4377;SDS011;2203;53.686;9.994;2023-11-18T13:09:16;10.13;;;4.03;;
4377;SDS011;2203;53.686;9.994;2023-11-18T13:11:51;4.83;;;3.70;;
4377;SDS011;2203;53.686;9.994;2023-11-18T13:14:17;7.67;;;3.93;;
4377;SDS011;2203;53.686;9.994;2023-11-18T13:16:46;5.80;;;3.60;;
4377;SDS011;2203;53.686;9.994;2023-11-18T13:19:11;6.50;;;3.70;;
4377;SDS011;2203;53.686;9.994;2023-11-18T13:21:48;7.40;;;4.50;;
4377;SDS011;2203;53.686;9.994;2023-11-18T13:24:14;6.60;;;4.20;;
4377;SDS011;2203;53.686;9.994;2023-11-18T13:26:39;6.00;;;3.70;;
4377;SDS011;2203;53.686;9.994;2023-11-18T13:29:05;3.60;;;3.10;;
4377;SDS011;2203;53.686;9.994;2023-11-18T13:31:31;5.63;;;3.60;;
4377;SDS011;2203;53.686;9.994;2023-11-18T13:33:57;16.93;;;4.00;;
4377;SDS011;2203;53.686;9.994;2023-11-18T13:36:22;5.20;;;3.70;;
4377;SDS011;2203;53.686;9.994;2023-11-18T13:38:49;6.03;;;3.97;;
4377;SDS011;2203;53.686;9.994;2023-11-18T13:41:27;6.50;;;3.80;;
4377;SDS011;2203;53.686;9.994;2023-11-18T13:43:54;10.00;;;3.77;;
4377;SDS011;2203;53.686;9.994;2023-11-18T13:46:19;5.47;;;4.33;;
4377;SDS011;2203;53.686;9.994;2023-11-18T13:48:48;6.60;;;4.70;;
4377;SDS011;2203;53.686;9.994;2023-11-18T13:51:16;5.63;;;3.80;;
4377;SDS011;2203;53.686;9.994;2023-11-18T13:53:44;7.80;;;4.57;;
4377;SDS011;2203;53.686;9.994;2023-11-18T13:56:11;6.07;;;4.33;;
4377;SDS011;2203;53.686;9.994;2023-11-18T13:58:37;5.50;;;3.97;;
4377;SDS011;2203;53.686;9.994;2023-11-18T14:01:06;6.13;;;4.00;;
4377;SDS011;2203;53.686;9.994;2023-11-18T14:03:36;8.17;;;4.57;;
4377;SDS011;2203;53.686;9.994;2023-11-18T14:06:08;13.83;;;5.40;;
4377;SDS011;2203;53.686;9.994;2023-11-18T14:08:37;5.53;;;3.73;;
4377;SDS011;2203;53.686;9.994;2023-11-18T14:11:06;6.47;;;3.70;;
4377;SDS011;2203;53.686;9.994;2023-11-18T14:13:34;7.23;;;4.60;;
4377;SDS011;2203;53.686;9.994;2023-11-18T14:16:01;8.73;;;4.63;;
4377;SDS011;2203;53.686;9.994;2023-11-18T14:18:27;6.03;;;4.07;;
4377;SDS011;2203;53.686;9.994;2023-11-18T14:20:52;6.40;;;3.80;;
4377;SDS011;2203;53.686;9.994;2023-11-18T14:23:18;5.93;;;3.97;;
4377;SDS011;2203;53.686;9.994;2023-11-18T14:25:44;8.17;;;4.40;;
4377;SDS011;2203;53.686;9.994;2023-11-18T14:28:10;9.60;;;4.37;;
4377;SDS011;2203;53.686;9.994;2023-11-18T14:30:36;7.40;;;4.10;;
4377;SDS011;2203;53.686;9.994;2023-11-18T14:33:02;6.20;;;4.20;;
4377;SDS011;2203;53.686;9.994;2023-11-18T14:35:28;4.67;;;3.63;;
4377;SDS011;2203;53.686;9.994;2023-11-18T14:37:54;6.50;;;3.90;;
4377;SDS011;2203;53.686;9.994;2023-11-18T14:40:21;3.77;;;3.10;;
4377;SDS011;2203;53.686;9.994;2023-11-18T14:42:49;6.53;;;3.90;;
4377;SDS011;2203;53.686;9.994;2023-11-18T14:45:15;11.30;;;3.87;;
4377;SDS011;2203;53.686;9.994;2023-11-18T14:47:41;11.10;;;3.20;;
4377;SDS011;2203;53.686;9.994;2023-11-18T14:50:13;6.67;;;3.60;;
4377;SDS011;2203;53.686;9.994;2023-11-18T14:52:45;7.77;;;3.53;;
4377;SDS011;2203;53.686;9.994;2023-11-18T14:55:16;7.90;;;3.33;;
4377;SDS011;2203;53.686;9.994;2023-11-18T14:57:42;11.37;;;4.40;;
4377;SDS011;2203;53.686;9.994;2023-11-18T15:00:09;4.80;;;3.30;;
4377;SDS011;2203;53.686;9.994;2023-11-18T15:02:44;4.87;;;3.57;;
4377;SDS011;2203;53.686;9.994;2023-11-18T15:05:16;3.87;;;2.50;;
4377;SDS011;2203;53.686;9.994;2023-11-18T15:07:52;5.83;;;3.60;;
4377;SDS011;2203;53.686;9.994;2023-11-18T15:10:20;4.37;;;2.90;;
4377;SDS011;2203;53.686;9.994;2023-11-18T15:15:13;7.73;;;3.03;;
4377;SDS011;2203;53.686;9.994;2023-11-18T15:17:45;3.53;;;2.70;;
4377;SDS011;2203;53.686;9.994;2023-11-18T15:20:12;4.43;;;2.57;;
4377;SDS011;2203;53.686;9.994;2023-11-18T15:22:38;6.33;;;3.63;;
4377;SDS011;2203;53.686;9.994;2023-11-18T15:25:04;4.53;;;3.17;;
4377;SDS011;2203;53.686;9.994;2023-11-18T15:27:34;4.87;;;3.50;;
4377;SDS011;2203;53.686;9.994;2023-11-18T15:30:00;6.67;;;4.03;;
4377;SDS011;2203;53.686;9.994;2023-11-18T15:32:27;6.53;;;3.37;;
4377;SDS011;2203;53.686;9.994;2023-11-18T15:34:52;5.20;;;3.60;;
4377;SDS011;2203;53.686;9.994;2023-11-18T15:37:18;6.53;;;3.80;;
4377;SDS011;2203;53.686;9.994;2023-11-18T15:39:43;6.63;;;4.17;;
4377;SDS011;2203;53.686;9.994;2023-11-18T15:42:09;5.33;;;3.47;;
4377;SDS011;2203;53.686;9.994;2023-11-18T15:44:36;6.43;;;3.80;;
4377;SDS011;2203;53.686;9.994;2023-11-18T15:47:03;8.27;;;4.37;;
4377;SDS011;2203;53.686;9.994;2023-11-18T15:49:30;8.50;;;4.10;;
4377;SDS011;2203;53.686;9.994;2023-11-18T15:51:55;7.50;;;4.77;;
4377;SDS011;2203;53.686;9.994;2023-11-18T15:54:20;5.70;;;4.23;;
4377;SDS011;2203;53.686;9.994;2023-11-18T15:56:46;8.10;;;4.60;;